Time;durP1;ratioP1;P1;durP2;ratioP2;P2;SDS_P1;SDS_P2;PMS_P1;PMS_P2;Temp;Humidity;BMP_temperature;BMP_pressure;BME280_temperature;BME280_humidity;BME280_pressure;Samples;Min_cycle;Max_cycle;Signal;HPM_P1;HPM_P2
2023/07/18 00:00:36;;;;;;;11.52;4.43;;;14.70;99.90;;;;;;5008326;28;20156;-45
2023/07/18 00:03:05;;;;;;;10.75;4.72;;;14.70;99.90;;;;;;5008660;28;20045;-46
2023/07/18 00:05:32;;;;;;;12.48;4.63;;;14.70;99.90;;;;;;5005436;28;20520;-45
2023/07/18 00:07:57;;;;;;;10.93;4.10;;;14.70;99.90;;;;;;4989307;28;20048;-48
2023/07/18 00:10:23;;;;;;;16.25;4.38;;;14.70;99.90;;;;;;5007531;28;20604;-47
2023/07/18 00:12:49;;;;;;;9.65;4.13;;;14.60;99.90;;;;;;4991597;28;20033;-44
2023/07/18 00:15:16;;;;;;;8.43;4.63;;;14.70;99.90;;;;;;4993986;28;20046;-47
2023/07/18 00:17:43;;;;;;;11.73;4.10;;;14.60;99.90;;;;;;5009526;28;20120;-46
2023/07/18 00:20:17;;;;;;;12.05;5.10;;;14.60;99.90;;;;;;5008707;28;20049;-47
2023/07/18 00:22:43;;;;;;;12.15;5.43;;;14.60;99.90;;;;;;5009753;28;20045;-45
2023/07/18 00:25:10;;;;;;;17.50;4.97;;;14.60;99.90;;;;;;5008837;28;20045;-44
2023/07/18 00:27:40;;;;;;;16.48;4.70;;;14.50;99.90;;;;;;5006341;28;20049;-50
2023/07/18 00:30:15;;;;;;;10.38;4.13;;;14.50;99.90;;;;;;5008457;28;20103;-46
2023/07/18 00:32:42;;;;;;;14.73;4.78;;;14.50;99.90;;;;;;5009111;28;20598;-47
2023/07/18 00:35:08;;;;;;;11.68;4.88;;;14.40;99.90;;;;;;4991542;28;20120;-49
2023/07/18 00:37:34;;;;;;;12.45;4.15;;;14.40;99.90;;;;;;4988635;28;20041;-44
2023/07/18 00:40:01;;;;;;;12.40;4.45;;;14.40;99.90;;;;;;4988111;28;20646;-45
2023/07/18 00:42:26;;;;;;;13.68;4.40;;;14.40;99.90;;;;;;4988858;28;20177;-45
2023/07/18 00:44:52;;;;;;;16.00;4.63;;;14.40;99.90;;;;;;4991052;28;20042;-47
2023/07/18 00:47:18;;;;;;;14.57;4.95;;;14.40;99.90;;;;;;4987328;28;20129;-45
2023/07/18 00:49:47;;;;;;;12.52;4.82;;;14.40;99.90;;;;;;4990613;28;20045;-47
2023/07/18 00:52:14;;;;;;;13.75;5.13;;;14.40;99.90;;;;;;4994846;28;20551;-47
2023/07/18 00:54:41;;;;;;;15.75;5.13;;;14.40;99.90;;;;;;4990794;28;20117;-48
2023/07/18 00:57:07;;;;;;;12.05;4.68;;;14.40;99.90;;;;;;4994874;28;20037;-47
2023/07/18 00:59:34;;;;;;;12.40;5.07;;;14.40;99.90;;;;;;4993652;28;20544;-48
2023/07/18 01:02:02;;;;;;;13.13;5.15;;;14.40;99.90;;;;;;4995795;28;20070;-47
2023/07/18 01:04:28;;;;;;;16.27;5.25;;;14.40;99.90;;;;;;4990013;28;20052;-45
2023/07/18 01:06:55;;;;;;;12.32;5.32;;;14.30;99.90;;;;;;4967869;28;20532;-48
2023/07/18 01:09:21;;;;;;;13.52;4.63;;;14.30;99.90;;;;;;4991141;28;20046;-47
2023/07/18 01:11:46;;;;;;;15.75;5.55;;;14.30;99.90;;;;;;4990045;28;20085;-46
2023/07/18 01:14:12;;;;;;;11.30;4.97;;;14.30;99.90;;;;;;4991430;28;20050;-47
2023/07/18 01:16:37;;;;;;;12.60;4.82;;;14.30;99.90;;;;;;4992403;28;20538;-45
2023/07/18 01:19:03;;;;;;;12.00;4.30;;;14.30;99.90;;;;;;4992833;28;20133;-46
2023/07/18 01:21:29;;;;;;;13.10;4.72;;;14.30;99.90;;;;;;4992361;28;20128;-47
2023/07/18 01:23:55;;;;;;;14.07;4.72;;;14.30;99.90;;;;;;4990868;28;20042;-46
2023/07/18 01:26:21;;;;;;;17.70;5.18;;;14.30;99.90;;;;;;4987318;28;20052;-47
2023/07/18 01:28:46;;;;;;;14.88;4.72;;;14.30;99.90;;;;;;4993454;28;20397;-47
2023/07/18 01:31:12;;;;;;;15.25;5.00;;;14.20;99.90;;;;;;4990643;28;20088;-49
2023/07/18 01:33:38;;;;;;;15.40;4.82;;;14.20;99.90;;;;;;4992775;28;20050;-47
2023/07/18 01:36:04;;;;;;;14.68;4.78;;;14.20;99.90;;;;;;5006673;28;20045;-47
2023/07/18 01:38:30;;;;;;;16.30;5.63;;;14.20;99.90;;;;;;5010431;28;20374;-46
2023/07/18 01:40:57;;;;;;;17.33;5.65;;;14.20;99.90;;;;;;5017624;28;20089;-47
2023/07/18 01:43:23;;;;;;;13.90;5.07;;;14.20;99.90;;;;;;5014367;28;20033;-48
2023/07/18 01:45:48;;;;;;;14.93;5.32;;;14.10;99.90;;;;;;5015224;28;20512;-45
2023/07/18 01:48:14;;;;;;;18.88;6.13;;;14.10;99.90;;;;;;5016931;28;21721;-47
2023/07/18 01:50:41;;;;;;;12.68;5.18;;;14.10;99.90;;;;;;5015632;28;20092;-48
2023/07/18 01:53:07;;;;;;;15.13;5.03;;;14.10;99.90;;;;;;5013275;28;20049;-46
2023/07/18 01:55:32;;;;;;;13.70;5.28;;;14.10;99.90;;;;;;5015981;28;20045;-44
2023/07/18 01:57:58;;;;;;;20.10;5.70;;;14.10;99.90;;;;;;5015100;28;20049;-47
2023/07/18 02:00:24;;;;;;;13.50;5.35;;;14.10;99.90;;;;;;5013587;28;20504;-45
2023/07/18 02:02:52;;;;;;;15.57;5.40;;;14.10;99.90;;;;;;5011524;28;20049;-46
2023/07/18 02:05:28;;;;;;;18.77;5.93;;;14.10;99.90;;;;;;4995099;28;20048;-46
2023/07/18 02:07:54;;;;;;;14.27;5.75;;;14.10;99.90;;;;;;4995374;28;20144;-46
2023/07/18 02:10:21;;;;;;;15.50;5.85;;;14.10;99.90;;;;;;5011268;28;20046;-46
2023/07/18 02:12:52;;;;;;;13.13;5.68;;;14.00;99.90;;;;;;4996339;28;20460;-46
2023/07/18 02:15:19;;;;;;;16.90;5.78;;;14.00;99.90;;;;;;5017088;28;20485;-47
2023/07/18 02:17:45;;;;;;;16.67;6.10;;;14.00;99.90;;;;;;5011720;28;20103;-46
2023/07/18 02:20:11;;;;;;;19.70;6.15;;;14.00;99.90;;;;;;4977096;28;20046;-48
2023/07/18 02:22:39;;;;;;;16.83;6.15;;;14.00;99.90;;;;;;5013004;28;20071;-46
2023/07/18 02:25:06;;;;;;;19.13;5.55;;;14.00;99.90;;;;;;4996693;28;20041;-47
2023/07/18 02:27:34;;;;;;;11.57;5.40;;;14.00;99.90;;;;;;5011495;28;20458;-48
2023/07/18 02:30:03;;;;;;;16.42;5.97;;;14.00;99.90;;;;;;5012566;28;20115;-48
2023/07/18 02:32:32;;;;;;;17.48;6.13;;;14.00;99.90;;;;;;5000002;28;20053;-44
2023/07/18 02:34:57;;;;;;;18.20;5.75;;;14.00;99.90;;;;;;5002378;28;20568;-46
2023/07/18 02:37:24;;;;;;;19.58;6.10;;;14.00;99.90;;;;;;5012929;28;20056;-46
2023/07/18 02:39:53;;;;;;;17.67;5.88;;;14.00;99.90;;;;;;5015462;28;20056;-48
2023/07/18 02:42:19;;;;;;;18.33;6.55;;;14.00;99.90;;;;;;5014453;28;20044;-47
2023/07/18 02:44:48;;;;;;;15.60;5.78;;;14.00;99.90;;;;;;5014987;28;20049;-48
2023/07/18 02:47:14;;;;;;;14.38;5.70;;;14.00;99.90;;;;;;5013572;28;20625;-50
2023/07/18 02:49:40;;;;;;;14.93;5.45;;;14.00;99.90;;;;;;5015885;28;20038;-47
2023/07/18 02:52:06;;;;;;;15.00;5.60;;;14.00;99.90;;;;;;4997203;28;20507;-47
2023/07/18 02:54:32;;;;;;;22.77;6.38;;;14.00;99.90;;;;;;5017052;28;20080;-47
2023/07/18 02:56:59;;;;;;;16.42;5.65;;;14.00;99.90;;;;;;4999894;28;20113;-45
2023/07/18 02:59:25;;;;;;;16.65;5.95;;;14.00;99.90;;;;;;5012647;28;20049;-45
2023/07/18 03:01:57;;;;;;;16.42;5.75;;;14.00;99.90;;;;;;4999334;28;20061;-47
2023/07/18 03:04:26;;;;;;;15.25;6.20;;;14.00;99.90;;;;;;5015691;28;20037;-47
2023/07/18 03:06:52;;;;;;;16.90;6.05;;;13.90;99.90;;;;;;4998603;28;20058;-45
2023/07/18 03:09:20;;;;;;;14.18;5.88;;;13.90;99.90;;;;;;5016370;28;20057;-47
2023/07/18 03:11:46;;;;;;;20.40;6.10;;;13.90;99.90;;;;;;5014972;28;20078;-46
2023/07/18 03:14:12;;;;;;;16.48;5.65;;;13.90;99.90;;;;;;5016059;28;20049;-45
2023/07/18 03:16:38;;;;;;;18.27;5.90;;;13.90;99.90;;;;;;4994923;28;20523;-46
2023/07/18 03:19:07;;;;;;;18.75;6.00;;;13.90;99.90;;;;;;4993583;28;20041;-49
2023/07/18 03:21:32;;;;;;;15.10;5.50;;;13.90;99.90;;;;;;5009638;28;20049;-47
2023/07/18 03:23:58;;;;;;;12.77;5.80;;;13.90;99.90;;;;;;5009342;28;20103;-48
2023/07/18 03:26:24;;;;;;;13.05;5.72;;;13.90;99.90;;;;;;5007103;28;20148;-45
2023/07/18 03:28:49;;;;;;;15.20;5.90;;;13.90;99.90;;;;;;4993847;28;20049;-49
2023/07/18 03:31:15;;;;;;;13.70;5.53;;;13.80;99.90;;;;;;5011127;28;20041;-45
2023/07/18 03:33:41;;;;;;;12.27;5.38;;;13.80;99.90;;;;;;5007968;28;20168;-45
2023/07/18 03:36:07;;;;;;;17.63;6.22;;;13.80;99.90;;;;;;4990441;28;20056;-46
2023/07/18 03:38:32;;;;;;;16.50;6.03;;;13.80;99.90;;;;;;5007261;28;20052;-47
2023/07/18 03:40:58;;;;;;;16.85;5.68;;;13.80;99.90;;;;;;5007098;28;20037;-47
2023/07/18 03:43:24;;;;;;;12.45;5.00;;;13.80;99.90;;;;;;4999567;28;20034;-47
2023/07/18 03:45:51;;;;;;;15.15;5.97;;;13.80;99.90;;;;;;4989077;28;20760;-47
2023/07/18 03:48:17;;;;;;;17.10;5.75;;;13.80;99.90;;;;;;5010627;28;20046;-45
2023/07/18 03:50:43;;;;;;;12.07;5.20;;;13.70;99.90;;;;;;5011395;28;20077;-46
2023/07/18 03:53:09;;;;;;;15.55;5.80;;;13.70;99.90;;;;;;5012428;28;20099;-47
2023/07/18 03:55:35;;;;;;;16.55;6.07;;;13.70;99.90;;;;;;5013271;28;20167;-45
2023/07/18 03:58:00;;;;;;;15.70;6.13;;;13.70;99.90;;;;;;4995953;28;20046;-45
2023/07/18 04:00:26;;;;;;;17.45;5.80;;;13.70;99.90;;;;;;5009620;28;20564;-45
2023/07/18 04:02:52;;;;;;;16.33;5.50;;;13.70;99.90;;;;;;4994300;28;20092;-49
2023/07/18 04:05:18;;;;;;;20.38;6.50;;;13.70;99.90;;;;;;5012761;28;20298;-50
2023/07/18 04:07:45;;;;;;;14.57;5.55;;;13.70;99.90;;;;;;5012086;28;20053;-50
2023/07/18 04:10:12;;;;;;;13.57;5.72;;;13.70;99.90;;;;;;5012729;28;20590;-48
2023/07/18 04:12:38;;;;;;;15.63;5.93;;;13.70;99.90;;;;;;4999267;28;20053;-53
2023/07/18 04:15:06;;;;;;;14.15;5.80;;;13.70;99.90;;;;;;5010677;28;20569;-53
2023/07/18 04:17:32;;;;;;;19.45;5.82;;;13.70;99.90;;;;;;5014255;28;20042;-51
2023/07/18 04:20:01;;;;;;;17.70;6.05;;;13.70;99.90;;;;;;5014954;28;20764;-52
2023/07/18 04:22:29;;;;;;;19.35;6.43;;;13.70;99.90;;;;;;4998396;28;20637;-53
2023/07/18 04:24:55;;;;;;;14.90;5.75;;;13.70;99.90;;;;;;5018508;28;20041;-50
2023/07/18 04:27:23;;;;;;;15.80;5.72;;;13.80;99.90;;;;;;5013683;28;20198;-53
2023/07/18 04:29:49;;;;;;;16.40;6.30;;;13.80;99.90;;;;;;5015601;28;20037;-50
2023/07/18 04:32:17;;;;;;;18.83;5.57;;;13.80;99.90;;;;;;5016517;28;20038;-52
2023/07/18 04:34:43;;;;;;;17.90;6.35;;;13.80;99.90;;;;;;5009814;28;20737;-52
2023/07/18 04:37:09;;;;;;;15.65;6.13;;;13.90;99.90;;;;;;5020075;28;20075;-48
2023/07/18 04:39:34;;;;;;;23.90;6.10;;;14.00;99.90;;;;;;5022369;28;20053;-51
2023/07/18 04:42:01;;;;;;;17.58;6.32;;;14.00;99.90;;;;;;5001793;28;20470;-53
2023/07/18 04:44:26;;;;;;;18.75;5.82;;;14.00;99.90;;;;;;5020099;28;20099;-53
2023/07/18 04:46:52;;;;;;;18.65;6.07;;;14.10;99.90;;;;;;5001375;28;20071;-51
2023/07/18 04:49:19;;;;;;;18.67;5.85;;;14.10;99.90;;;;;;5016840;28;20120;-52
2023/07/18 04:51:44;;;;;;;18.35;6.15;;;14.10;99.90;;;;;;5017789;28;20436;-54
2023/07/18 04:54:10;;;;;;;19.40;6.18;;;14.10;99.90;;;;;;4999855;28;20128;-53
2023/07/18 04:56:36;;;;;;;14.27;5.43;;;14.20;99.90;;;;;;5017618;28;20121;-51
2023/07/18 04:59:02;;;;;;;17.13;5.85;;;14.20;99.90;;;;;;5016651;28;20042;-53
2023/07/18 05:01:28;;;;;;;19.10;6.18;;;14.20;99.90;;;;;;5019016;28;20030;-52
2023/07/18 05:03:56;;;;;;;16.58;5.97;;;14.30;99.90;;;;;;5019790;28;20536;-51
2023/07/18 05:06:22;;;;;;;16.27;6.07;;;14.30;99.90;;;;;;5017118;28;20055;-51
2023/07/18 05:08:47;;;;;;;18.38;5.57;;;14.30;99.90;;;;;;5015758;28;20701;-54
2023/07/18 05:11:13;;;;;;;16.70;6.30;;;14.40;99.90;;;;;;5021455;28;20080;-53
2023/07/18 05:13:39;;;;;;;16.52;5.90;;;14.40;99.90;;;;;;5018548;28;20041;-52
2023/07/18 05:16:05;;;;;;;24.73;6.65;;;14.50;99.90;;;;;;5000044;28;20466;-51
2023/07/18 05:18:31;;;;;;;14.63;5.85;;;14.50;99.90;;;;;;5014466;28;20044;-53
2023/07/18 05:20:57;;;;;;;21.77;6.18;;;14.50;99.90;;;;;;5016705;28;20042;-53
2023/07/18 05:23:23;;;;;;;18.15;6.13;;;14.60;99.90;;;;;;5019440;28;20041;-52
2023/07/18 05:25:49;;;;;;;17.77;5.93;;;14.60;99.90;;;;;;5015717;28;20041;-51
2023/07/18 05:28:15;;;;;;;22.55;6.55;;;14.70;99.90;;;;;;5013372;28;20052;-52
2023/07/18 05:30:41;;;;;;;16.52;6.03;;;14.80;99.90;;;;;;5013469;28;20468;-51
2023/07/18 05:33:07;;;;;;;18.45;5.80;;;14.90;99.90;;;;;;5001848;28;20576;-53
2023/07/18 05:35:33;;;;;;;26.48;6.20;;;15.10;99.90;;;;;;5018153;28;20072;-50
2023/07/18 05:38:01;;;;;;;16.95;5.85;;;15.10;99.90;;;;;;5001427;28;20057;-49
2023/07/18 05:40:27;;;;;;;15.45;5.80;;;15.10;99.90;;;;;;5017181;28;20041;-53
2023/07/18 05:42:53;;;;;;;19.52;5.75;;;15.20;99.90;;;;;;5010846;28;20040;-52
2023/07/18 05:45:19;;;;;;;22.52;6.40;;;15.20;99.90;;;;;;5007587;28;20112;-53
2023/07/18 05:47:44;;;;;;;24.70;6.32;;;15.20;99.90;;;;;;5007068;28;20120;-53
2023/07/18 05:50:10;;;;;;;16.65;6.25;;;15.20;99.90;;;;;;5014888;28;20488;-50
2023/07/18 05:52:36;;;;;;;16.85;6.03;;;15.30;99.90;;;;;;5014344;28;20409;-52
2023/07/18 05:55:04;;;;;;;24.23;6.30;;;15.30;99.90;;;;;;5015805;28;20132;-52
2023/07/18 05:57:29;;;;;;;20.58;6.05;;;15.30;99.90;;;;;;4971420;28;20077;-51
2023/07/18 05:59:55;;;;;;;22.27;6.75;;;15.30;99.90;;;;;;5011638;28;20188;-51
2023/07/18 06:02:21;;;;;;;18.73;6.38;;;15.40;99.90;;;;;;5011327;28;20049;-50
2023/07/18 06:04:47;;;;;;;16.73;5.82;;;15.40;99.90;;;;;;5009162;28;20463;-54
2023/07/18 06:07:14;;;;;;;18.95;6.20;;;15.50;99.90;;;;;;5004600;28;20155;-55
2023/07/18 06:09:40;;;;;;;15.27;6.10;;;15.50;99.90;;;;;;5006842;28;20872;-58
2023/07/18 06:12:06;;;;;;;22.92;6.57;;;15.50;99.90;;;;;;5003745;28;20327;-56
2023/07/18 06:14:33;;;;;;;20.52;6.55;;;15.60;99.90;;;;;;5013970;28;20535;-56
2023/07/18 06:16:59;;;;;;;15.98;6.20;;;15.60;99.90;;;;;;5013370;28;20481;-56
2023/07/18 06:19:25;;;;;;;22.20;7.22;;;15.60;99.90;;;;;;4997794;28;20052;-57
2023/07/18 06:21:51;;;;;;;13.27;6.60;;;15.70;99.90;;;;;;5011766;28;20494;-56
2023/07/18 06:24:17;;;;;;;20.20;7.15;;;15.70;99.90;;;;;;5012786;28;20467;-57
2023/07/18 06:26:48;;;;;;;21.15;6.43;;;15.70;99.90;;;;;;5011347;28;20050;-57
2023/07/18 06:29:19;;;;;;;19.40;6.97;;;15.70;99.90;;;;;;4994976;28;20061;-57
2023/07/18 06:31:46;;;;;;;16.77;6.43;;;15.70;99.90;;;;;;5009265;28;20092;-57
2023/07/18 06:34:11;;;;;;;17.42;6.60;;;15.80;99.90;;;;;;5012081;28;20057;-56
2023/07/18 06:36:37;;;;;;;24.88;7.00;;;15.90;99.90;;;;;;4993516;28;20065;-57
2023/07/18 06:39:05;;;;;;;15.93;6.80;;;16.00;99.90;;;;;;5012847;28;20041;-59
2023/07/18 06:41:32;;;;;;;25.55;8.00;;;16.10;99.90;;;;;;4995568;28;20052;-59
2023/07/18 06:43:58;;;;;;;22.13;8.20;;;16.20;99.90;;;;;;5014051;28;20151;-56
2023/07/18 06:46:24;;;;;;;23.33;8.02;;;16.30;99.90;;;;;;5018042;28;20144;-58
2023/07/18 06:48:50;;;;;;;21.25;8.25;;;16.40;99.90;;;;;;4983062;28;20037;-58
2023/07/18 06:51:15;;;;;;;17.55;7.30;;;16.50;99.90;;;;;;5017488;28;20041;-59
2023/07/18 06:53:41;;;;;;;19.00;7.72;;;16.60;99.90;;;;;;4989181;28;20124;-58
2023/07/18 06:56:07;;;;;;;23.52;8.27;;;16.70;99.90;;;;;;4997780;28;20120;-58
2023/07/18 06:58:33;;;;;;;20.80;7.80;;;16.80;99.90;;;;;;5013884;28;20045;-57
2023/07/18 07:00:58;;;;;;;25.52;8.30;;;17.00;99.90;;;;;;5011181;28;20046;-56
2023/07/18 07:03:24;;;;;;;22.40;7.75;;;17.20;99.90;;;;;;5015962;28;20172;-59
2023/07/18 07:05:50;;;;;;;23.08;8.10;;;17.30;99.90;;;;;;4971270;28;20372;-57
2023/07/18 07:08:18;;;;;;;28.40;8.00;;;17.40;99.90;;;;;;5014000;28;20046;-57
2023/07/18 07:10:45;;;;;;;24.25;7.78;;;17.50;99.90;;;;;;5017460;28;20042;-59
2023/07/18 07:13:11;;;;;;;22.17;7.60;;;17.50;99.90;;;;;;4999057;28;20049;-59
2023/07/18 07:15:38;;;;;;;18.73;7.18;;;17.60;99.90;;;;;;5015122;28;20049;-59
2023/07/18 07:18:05;;;;;;;23.80;7.50;;;17.70;99.90;;;;;;4999182;28;20395;-55
2023/07/18 07:20:35;;;;;;;20.60;8.10;;;17.80;99.90;;;;;;4998129;28;20132;-58
2023/07/18 07:23:01;;;;;;;22.90;7.93;;;17.90;99.90;;;;;;4996405;28;20041;-58
2023/07/18 07:25:31;;;;;;;22.00;8.57;;;18.00;99.90;;;;;;5013141;28;20107;-57
2023/07/18 07:27:57;;;;;;;24.02;9.30;;;18.10;99.90;;;;;;5011490;28;20042;-59
2023/07/18 07:30:23;;;;;;;17.58;7.95;;;18.20;99.90;;;;;;4980055;28;20048;-59
2023/07/18 07:32:53;;;;;;;22.33;7.65;;;18.40;99.90;;;;;;5013309;28;20178;-58
2023/07/18 07:35:20;;;;;;;24.35;7.72;;;18.50;99.90;;;;;;5012494;28;20061;-58
2023/07/18 07:37:51;;;;;;;20.95;7.90;;;18.60;99.90;;;;;;5012780;28;20037;-57
2023/07/18 07:40:17;;;;;;;16.80;7.30;;;18.70;99.90;;;;;;5010245;28;20468;-58
2023/07/18 07:42:45;;;;;;;18.85;7.60;;;18.90;99.90;;;;;;5012185;28;20441;-59
2023/07/18 07:45:12;;;;;;;15.40;6.85;;;19.00;99.90;;;;;;4981478;28;20206;-58
2023/07/18 07:47:38;;;;;;;19.17;6.57;;;19.10;99.90;;;;;;5015463;28;20044;-58
2023/07/18 07:50:05;;;;;;;23.33;7.65;;;19.20;99.90;;;;;;5016291;28;20408;-58
2023/07/18 07:52:31;;;;;;;16.52;7.18;;;19.20;99.90;;;;;;5004469;28;20558;-58
2023/07/18 07:54:58;;;;;;;14.27;6.78;;;19.30;99.90;;;;;;5015119;28;20045;-59
2023/07/18 07:57:24;;;;;;;22.88;7.70;;;19.40;99.90;;;;;;5012964;28;20138;-58
2023/07/18 07:59:51;;;;;;;19.25;7.05;;;19.40;99.90;;;;;;5017241;28;20088;-57
2023/07/18 08:02:19;;;;;;;17.25;7.00;;;19.50;99.90;;;;;;5014713;28;20076;-57
2023/07/18 08:04:48;;;;;;;18.45;7.07;;;19.50;99.90;;;;;;5016363;28;20666;-58
2023/07/18 08:07:15;;;;;;;18.08;6.90;;;19.60;99.90;;;;;;5015649;28;20121;-58
2023/07/18 08:09:42;;;;;;;13.65;5.53;;;19.70;99.90;;;;;;5015003;28;20037;-59
2023/07/18 08:12:09;;;;;;;15.00;5.78;;;19.90;99.90;;;;;;5018144;28;20486;-58
2023/07/18 08:14:37;;;;;;;18.45;6.18;;;20.00;99.90;;;;;;5020263;28;20049;-59
2023/07/18 08:17:03;;;;;;;16.50;4.72;;;20.10;99.90;;;;;;5019362;28;20463;-58
2023/07/18 08:19:29;;;;;;;11.05;4.10;;;20.10;99.90;;;;;;5000622;28;20086;-58
2023/07/18 08:21:56;;;;;;;13.60;3.38;;;20.10;99.90;;;;;;5019510;28;20038;-58
2023/07/18 08:24:22;;;;;;;10.40;3.78;;;20.20;99.90;;;;;;5000903;28;20088;-57
2023/07/18 08:26:48;;;;;;;12.38;3.80;;;20.40;99.90;;;;;;4985369;28;20042;-59
2023/07/18 08:29:14;;;;;;;14.88;3.65;;;20.60;99.90;;;;;;5006923;28;20515;-57
2023/07/18 08:31:41;;;;;;;13.45;3.30;;;20.80;99.90;;;;;;5019975;28;20085;-58
2023/07/18 08:34:06;;;;;;;9.20;2.72;;;21.00;99.90;;;;;;4998685;28;20081;-58
2023/07/18 08:36:35;;;;;;;9.50;2.75;;;21.20;99.90;;;;;;5017359;28;20140;-57
2023/07/18 08:39:02;;;;;;;9.80;2.38;;;21.20;99.90;;;;;;5020463;28;20033;-58
2023/07/18 08:41:28;;;;;;;9.18;2.50;;;21.30;99.90;;;;;;5018235;28;20504;-56
2023/07/18 08:43:55;;;;;;;6.75;2.17;;;21.40;99.90;;;;;;5020025;28;20115;-57
2023/07/18 08:46:21;;;;;;;5.20;2.17;;;21.50;99.90;;;;;;5020116;28;20037;-57
2023/07/18 08:48:48;;;;;;;9.00;2.22;;;21.60;99.90;;;;;;5018758;28;20033;-58
2023/07/18 08:51:14;;;;;;;7.47;2.25;;;21.50;99.90;;;;;;5018480;28;20048;-57
2023/07/18 08:53:43;;;;;;;11.73;2.90;;;21.60;99.90;;;;;;5020435;28;20040;-58
2023/07/18 08:56:09;;;;;;;12.43;2.88;;;21.60;99.90;;;;;;5019911;28;20046;-57
2023/07/18 08:58:39;;;;;;;7.75;2.50;;;21.70;99.90;;;;;;5000508;28;20471;-58
2023/07/18 09:01:08;;;;;;;11.10;2.25;;;21.80;99.90;;;;;;5019362;28;20104;-58
2023/07/18 09:03:35;;;;;;;10.82;2.80;;;21.90;99.90;;;;;;4991807;28;20046;-58
2023/07/18 09:06:15;;;;;;;7.60;2.33;;;21.90;99.90;;;;;;5014746;28;20073;-57
2023/07/18 09:08:44;;;;;;;7.47;2.17;;;22.00;99.90;;;;;;5014214;28;20599;-59
2023/07/18 09:11:14;;;;;;;4.70;1.80;;;22.10;99.90;;;;;;5015573;28;20503;-58
2023/07/18 09:13:42;;;;;;;6.18;1.90;;;22.20;99.90;;;;;;5014585;28;20049;-58
2023/07/18 09:16:25;;;;;;;9.82;1.95;;;22.50;99.90;;;;;;5013710;28;20042;-58
2023/07/18 09:18:55;;;;;;;7.03;1.95;;;22.90;99.90;;;;;;5013298;28;20049;-58
2023/07/18 09:21:22;;;;;;;9.10;2.15;;;23.10;99.90;;;;;;5013101;28;20045;-59
2023/07/18 09:23:50;;;;;;;7.53;1.88;;;23.10;99.90;;;;;;5011771;28;20049;-59
2023/07/18 09:26:21;;;;;;;6.10;1.65;;;23.30;99.90;;;;;;5015989;28;20046;-57
2023/07/18 09:28:48;;;;;;;5.75;1.73;;;23.50;99.60;;;;;;5013616;28;20129;-58
2023/07/18 09:31:17;;;;;;;4.47;1.40;;;23.50;98.80;;;;;;5013316;28;20042;-59
2023/07/18 09:33:49;;;;;;;6.13;1.58;;;23.60;98.20;;;;;;4999103;28;20037;-59
2023/07/18 09:36:23;;;;;;;7.10;2.00;;;23.60;97.00;;;;;;4994410;28;20089;-58
2023/07/18 09:38:50;;;;;;;6.88;1.70;;;23.70;96.70;;;;;;5015000;28;20042;-57
2023/07/18 09:41:17;;;;;;;6.05;1.80;;;23.80;96.40;;;;;;5014370;28;20480;-59
2023/07/18 09:43:43;;;;;;;7.00;1.55;;;24.10;96.20;;;;;;5014099;28;20037;-58
2023/07/18 09:46:13;;;;;;;4.78;1.73;;;24.20;95.20;;;;;;5011890;28;20064;-56
2023/07/18 09:48:41;;;;;;;4.85;1.90;;;24.30;94.30;;;;;;5012994;28;20037;-59
2023/07/18 09:51:14;;;;;;;6.05;1.75;;;24.30;93.60;;;;;;5012580;28;20122;-57
2023/07/18 09:53:44;;;;;;;9.02;2.17;;;24.20;93.70;;;;;;5011790;28;20054;-57
2023/07/18 09:56:14;;;;;;;8.80;2.10;;;24.00;93.80;;;;;;5014770;28;20579;-59
2023/07/18 09:58:43;;;;;;;9.07;2.13;;;23.70;93.60;;;;;;4996279;28;20046;-56
2023/07/18 10:01:19;;;;;;;6.28;1.75;;;23.40;93.90;;;;;;5012556;28;20088;-59
2023/07/18 10:03:46;;;;;;;6.97;2.35;;;23.20;94.10;;;;;;5012105;28;20590;-58
2023/07/18 10:06:15;;;;;;;5.78;1.67;;;23.00;94.40;;;;;;5007452;28;20037;-58
2023/07/18 10:08:43;;;;;;;5.38;1.80;;;22.80;94.60;;;;;;5012169;28;20390;-58
2023/07/18 10:11:09;;;;;;;5.80;2.00;;;22.70;94.80;;;;;;5014892;28;20115;-56
2023/07/18 10:13:42;;;;;;;2.90;1.58;;;22.60;95.10;;;;;;5006846;28;20034;-59
2023/07/18 10:16:13;;;;;;;7.82;1.95;;;22.50;95.20;;;;;;5013081;28;20049;-57
2023/07/18 10:18:50;;;;;;;7.38;1.88;;;22.40;95.20;;;;;;5008665;28;20052;-58
2023/07/18 10:21:32;;;;;;;6.53;1.90;;;22.40;95.20;;;;;;5012665;28;20049;-57
2023/07/18 10:24:23;;;;;;;;;;;22.30;95.20;;;;;;5012586;28;20566;-57
2023/07/18 10:26:51;;;;;;;7.10;1.67;;;22.20;95.30;;;;;;4998536;28;20354;-58
2023/07/18 10:29:17;;;;;;;7.35;2.28;;;22.20;95.60;;;;;;5011746;28;20056;-58
2023/07/18 10:31:44;;;;;;;5.53;1.58;;;22.10;95.60;;;;;;4994215;28;20042;-58
2023/07/18 10:34:15;;;;;;;6.28;1.60;;;22.10;95.40;;;;;;5011873;28;20376;-57
2023/07/18 10:36:58;;;;;;;6.32;1.80;;;22.10;95.50;;;;;;5014261;28;20225;-56
2023/07/18 10:39:50;;;;;;;5.57;1.95;;;22.10;95.30;;;;;;4996048;28;20079;-58
2023/07/18 10:42:21;;;;;;;5.37;1.87;;;22.10;95.60;;;;;;4993908;28;20041;-58
2023/07/18 10:44:55;;;;;;;8.50;2.10;;;22.10;95.90;;;;;;5011735;28;20045;-57
2023/07/18 10:47:21;;;;;;;7.60;1.77;;;22.20;95.90;;;;;;5012316;28;20064;-57
2023/07/18 10:49:49;;;;;;;6.82;2.10;;;22.30;96.00;;;;;;5014153;28;20107;-57
2023/07/18 10:52:19;;;;;;;10.03;2.40;;;22.40;96.00;;;;;;4998445;28;20090;-58
2023/07/18 10:54:51;;;;;;;5.60;2.20;;;22.60;96.20;;;;;;5012569;28;20145;-58
2023/07/18 10:57:22;;;;;;;6.70;1.73;;;22.60;96.00;;;;;;5012410;28;20049;-58
2023/07/18 10:59:48;;;;;;;4.72;2.03;;;22.60;95.80;;;;;;5013526;28;20054;-56
2023/07/18 11:02:14;;;;;;;6.82;2.30;;;22.90;95.90;;;;;;5011756;28;20037;-58
2023/07/18 11:04:40;;;;;;;8.18;2.10;;;23.30;95.80;;;;;;5011462;28;20037;-58
2023/07/18 11:07:05;;;;;;;7.25;2.05;;;23.70;95.20;;;;;;5010998;28;20044;-58
2023/07/18 11:09:34;;;;;;;5.63;2.05;;;23.90;94.90;;;;;;4995116;28;20045;-58
2023/07/18 11:12:00;;;;;;;7.57;2.20;;;24.10;94.60;;;;;;5010069;28;20042;-58
2023/07/18 11:14:38;;;;;;;9.35;2.70;;;24.10;94.10;;;;;;5012009;28;20037;-57
2023/07/18 11:17:13;;;;;;;10.65;2.90;;;24.00;93.80;;;;;;5010223;28;20176;-58
2023/07/18 11:19:39;;;;;;;9.40;2.60;;;23.80;93.70;;;;;;5008995;28;20037;-57
2023/07/18 11:22:06;;;;;;;6.88;2.40;;;23.90;94.10;;;;;;5006248;28;20041;-58
2023/07/18 11:24:33;;;;;;;8.25;2.10;;;24.20;94.10;;;;;;5011494;28;20167;-58
2023/07/18 11:27:19;;;;;;;6.65;2.40;;;24.60;93.50;;;;;;5009836;28;20079;-59
2023/07/18 11:30:08;;;;;;;7.50;2.20;;;25.10;93.40;;;;;;5011586;28;20085;-58
2023/07/18 11:32:39;;;;;;;7.75;2.05;;;25.70;93.80;;;;;;5010956;28;20061;-58
2023/07/18 11:35:18;;;;;;;6.70;1.90;;;26.10;91.90;;;;;;5009808;28;20414;-58
2023/07/18 11:37:46;;;;;;;8.10;2.05;;;26.10;90.70;;;;;;5005745;28;20053;-58
2023/07/18 11:40:21;;;;;;;6.65;1.80;;;26.30;90.20;;;;;;5002181;28;20057;-57
2023/07/18 11:43:00;;;;;;;5.15;1.70;;;26.40;89.90;;;;;;5002383;28;20041;-59
2023/07/18 11:45:27;;;;;;;4.78;1.85;;;26.50;87.30;;;;;;5008127;28;20045;-58
2023/07/18 11:47:56;;;;;;;8.20;2.40;;;26.60;85.20;;;;;;5008193;28;20614;-58
2023/07/18 11:50:25;;;;;;;11.02;1.90;;;26.60;82.80;;;;;;5008146;28;20511;-57
2023/07/18 11:52:53;;;;;;;2.90;1.30;;;26.60;81.40;;;;;;4991014;28;20033;-57
2023/07/18 11:55:20;;;;;;;4.47;1.50;;;26.30;80.50;;;;;;5011783;28;20049;-57
2023/07/18 11:57:48;;;;;;;5.13;1.40;;;26.20;80.20;;;;;;4994435;28;20137;-57
2023/07/18 12:00:15;;;;;;;6.70;1.65;;;26.10;79.40;;;;;;4997032;28;20378;-58
2023/07/18 12:02:41;;;;;;;4.22;2.03;;;26.10;81.10;;;;;;5013334;28;20348;-58
2023/07/18 12:05:07;;;;;;;2.97;1.98;;;26.10;81.80;;;;;;5014071;28;20041;-55
2023/07/18 12:07:34;;;;;;;5.57;2.55;;;26.10;83.10;;;;;;5010685;28;20037;-58
2023/07/18 12:10:01;;;;;;;10.38;2.45;;;26.20;83.30;;;;;;4996464;28;20037;-57
2023/07/18 12:12:26;;;;;;;6.57;2.15;;;25.90;83.20;;;;;;5011410;28;20037;-56
2023/07/18 12:14:53;;;;;;;6.50;2.10;;;25.50;83.00;;;;;;5015198;28;20057;-55
2023/07/18 12:17:19;;;;;;;4.65;2.10;;;25.00;83.80;;;;;;5014599;28;20049;-56
2023/07/18 12:19:44;;;;;;;5.97;1.98;;;24.60;85.60;;;;;;5012708;28;20089;-53
2023/07/18 12:22:11;;;;;;;3.50;1.85;;;24.40;87.10;;;;;;5011411;28;20113;-55
2023/07/18 12:24:37;;;;;;;5.95;1.88;;;24.20;87.40;;;;;;5014235;28;20056;-56
2023/07/18 12:27:05;;;;;;;4.65;2.10;;;24.10;88.00;;;;;;5012972;28;20038;-56
2023/07/18 12:29:31;;;;;;;4.40;1.75;;;24.00;88.80;;;;;;5013185;28;20034;-56
2023/07/18 12:31:57;;;;;;;4.18;1.98;;;23.80;89.30;;;;;;5011625;28;20068;-56
2023/07/18 12:34:22;;;;;;;6.50;1.95;;;23.70;90.10;;;;;;5015670;28;20050;-56
2023/07/18 12:36:48;;;;;;;4.00;1.83;;;23.60;90.30;;;;;;5014608;28;20573;-53
2023/07/18 12:39:15;;;;;;;4.55;2.20;;;23.40;90.50;;;;;;5004064;28;20044;-57
2023/07/18 12:41:42;;;;;;;4.93;1.92;;;23.30;90.40;;;;;;5010737;28;20045;-54